createdAt,value
2023-03-07T00:01:09.178Z,5.80
2023-03-07T00:03:36.896Z,6.65
2023-03-07T00:06:10.009Z,6.43
2023-03-07T00:08:37.666Z,5.90
2023-03-07T00:11:08.037Z,5.63
2023-03-07T00:13:38.393Z,6.55
2023-03-07T00:16:10.727Z,6.60
2023-03-07T00:18:37.677Z,6.30
2023-03-07T00:21:08.076Z,5.32
2023-03-07T00:23:38.015Z,5.38
2023-03-07T00:26:11.862Z,6.13
2023-03-07T00:28:38.662Z,5.57
2023-03-07T00:31:11.166Z,6.07
2023-03-07T00:33:39.278Z,6.25
2023-03-07T00:36:15.367Z,6.63
2023-03-07T00:38:42.448Z,6.00
2023-03-07T00:41:19.043Z,6.28
2023-03-07T00:43:47.187Z,6.60
2023-03-07T00:46:16.099Z,6.70
2023-03-07T00:48:43.808Z,5.93
2023-03-07T00:51:15.454Z,6.30
2023-03-07T00:53:43.209Z,5.90
2023-03-07T00:56:21.165Z,6.85
2023-03-07T00:58:48.954Z,6.43
2023-03-07T01:01:20.925Z,6.40
2023-03-07T01:03:53.653Z,6.22
2023-03-07T01:06:25.172Z,6.03
2023-03-07T01:08:52.632Z,6.82
2023-03-07T01:11:19.699Z,6.40
2023-03-07T01:13:46.671Z,6.97
2023-03-07T01:16:22.842Z,6.85
2023-03-07T01:18:53.990Z,6.80
2023-03-07T01:21:26.673Z,7.50
2023-03-07T01:23:53.832Z,6.82
2023-03-07T01:26:30.369Z,7.80
2023-03-07T01:29:01.547Z,7.30
2023-03-07T01:31:30.238Z,6.40
2023-03-07T01:33:57.310Z,7.05
2023-03-07T01:36:30.515Z,6.63
2023-03-07T01:39:02.810Z,6.65
2023-03-07T01:41:32.342Z,7.50
2023-03-07T01:44:02.512Z,7.70
2023-03-07T01:46:53.233Z,7.25
2023-03-07T01:49:37.542Z,7.75
2023-03-07T01:55:10.309Z,7.18
2023-03-07T01:57:40.377Z,7.10
2023-03-07T02:00:13.934Z,7.93
2023-03-07T02:02:49.536Z,8.40
2023-03-07T02:05:25.830Z,9.00
2023-03-07T02:07:54.915Z,9.10
2023-03-07T02:10:24.284Z,9.02
2023-03-07T02:12:53.770Z,9.10
2023-03-07T02:15:21.357Z,9.18
2023-03-07T02:17:48.330Z,9.60
2023-03-07T02:20:31.643Z,10.88
2023-03-07T02:22:58.394Z,9.73
2023-03-07T02:25:43.609Z,10.35
2023-03-07T02:28:14.502Z,11.55
2023-03-07T02:30:58.460Z,10.48
2023-03-07T02:33:25.414Z,11.95
2023-03-07T02:35:59.176Z,12.05
2023-03-07T02:38:26.793Z,11.90
2023-03-07T02:40:56.954Z,12.23
2023-03-07T02:43:24.293Z,12.07
2023-03-07T02:45:51.328Z,12.05
2023-03-07T02:48:18.867Z,12.50
2023-03-07T02:50:45.637Z,12.45
2023-03-07T02:53:12.401Z,13.80
2023-03-07T02:55:40.074Z,13.60
2023-03-07T02:58:07.069Z,13.35
2023-03-07T03:00:34.177Z,12.70
2023-03-07T03:03:01.246Z,12.93
2023-03-07T03:05:27.995Z,14.75
2023-03-07T03:07:55.093Z,13.52
2023-03-07T03:10:21.862Z,14.88
2023-03-07T03:12:48.628Z,14.90
2023-03-07T03:15:15.432Z,14.07
2023-03-07T03:17:42.713Z,14.10
2023-03-07T03:20:11.929Z,14.27
2023-03-07T03:22:42.496Z,14.63
2023-03-07T03:25:14.451Z,13.77
2023-03-07T03:27:41.951Z,14.25
2023-03-07T03:30:12.241Z,14.18
2023-03-07T03:32:40.130Z,14.57
2023-03-07T03:35:08.075Z,15.00
2023-03-07T03:37:35.239Z,15.45
2023-03-07T03:40:02.246Z,15.00
2023-03-07T03:42:29.024Z,14.60
2023-03-07T03:44:55.763Z,16.00
2023-03-07T03:47:22.534Z,15.07
2023-03-07T03:49:49.400Z,15.25
2023-03-07T03:52:16.122Z,14.07
2023-03-07T03:54:42.897Z,15.13
2023-03-07T03:57:10.724Z,14.60
2023-03-07T03:59:37.461Z,14.35
2023-03-07T04:02:04.352Z,14.25
2023-03-07T04:04:31.132Z,15.02
2023-03-07T04:06:57.914Z,15.02
2023-03-07T04:09:24.678Z,15.43
2023-03-07T04:11:51.402Z,14.35
2023-03-07T04:14:18.151Z,13.45
2023-03-07T04:16:44.990Z,15.15
2023-03-07T04:19:13.044Z,14.63
2023-03-07T04:21:40.963Z,15.38
2023-03-07T04:24:08.705Z,13.55
2023-03-07T04:26:36.282Z,15.20
2023-03-07T04:29:04.521Z,13.82
2023-03-07T04:31:32.797Z,14.13
2023-03-07T04:33:59.629Z,15.02
2023-03-07T04:36:26.491Z,15.23
2023-03-07T04:38:53.319Z,15.32
2023-03-07T04:41:26.103Z,14.75
2023-03-07T04:43:53.620Z,13.60
2023-03-07T04:46:21.095Z,14.15
2023-03-07T04:48:47.854Z,15.10
2023-03-07T04:51:15.220Z,14.75
2023-03-07T04:53:42.248Z,14.38
2023-03-07T04:56:10.098Z,13.85
2023-03-07T04:58:37.804Z,14.20
2023-03-07T05:01:05.383Z,13.65
2023-03-07T05:03:33.391Z,14.20
2023-03-07T05:06:12.720Z,14.20
2023-03-07T05:08:39.543Z,13.05
2023-03-07T05:11:06.348Z,12.43
2023-03-07T05:13:33.375Z,13.27
2023-03-07T05:16:01.055Z,13.90
2023-03-07T05:18:28.836Z,12.65
2023-03-07T05:20:56.043Z,12.70
2023-03-07T05:23:23.809Z,11.95
2023-03-07T05:25:51.481Z,12.05
2023-03-07T05:28:19.033Z,11.80
2023-03-07T05:30:46.914Z,12.35
2023-03-07T05:33:15.094Z,11.70
2023-03-07T05:35:43.127Z,12.45
2023-03-07T05:38:10.039Z,11.63
2023-03-07T05:40:36.997Z,12.82
2023-03-07T05:43:04.069Z,12.95
2023-03-07T05:45:30.802Z,12.23
2023-03-07T05:47:57.543Z,12.93
2023-03-07T05:50:24.298Z,12.32
2023-03-07T05:52:52.954Z,12.00
2023-03-07T05:55:19.793Z,12.02
2023-03-07T05:57:46.610Z,12.63
2023-03-07T06:00:14.449Z,11.98
2023-03-07T06:02:42.355Z,11.73
2023-03-07T06:05:09.552Z,11.57
2023-03-07T06:07:36.257Z,11.82
2023-03-07T06:10:04.260Z,11.27
2023-03-07T06:12:31.035Z,11.32
2023-03-07T06:14:57.741Z,11.15
2023-03-07T06:17:24.476Z,11.75
2023-03-07T06:19:51.263Z,11.60
2023-03-07T06:22:17.993Z,11.02
2023-03-07T06:24:44.746Z,11.10
2023-03-07T06:27:11.479Z,11.13
2023-03-07T06:29:38.224Z,10.75
2023-03-07T06:32:05.570Z,11.45
2023-03-07T06:34:32.322Z,10.75
2023-03-07T06:36:59.862Z,10.40
2023-03-07T06:39:27.459Z,13.40
2023-03-07T06:41:55.080Z,11.00
2023-03-07T06:44:21.805Z,12.13
2023-03-07T06:46:48.923Z,11.45
2023-03-07T06:49:15.693Z,10.95
2023-03-07T06:51:42.413Z,10.10
2023-03-07T06:54:09.155Z,10.43
2023-03-07T06:56:35.957Z,11.13
2023-03-07T06:59:02.816Z,11.13
2023-03-07T07:01:30.014Z,11.32
2023-03-07T07:03:57.531Z,10.82
2023-03-07T07:06:24.364Z,11.65
2023-03-07T07:08:55.621Z,11.38
2023-03-07T07:11:23.758Z,9.93
2023-03-07T07:13:50.728Z,10.88
2023-03-07T07:16:18.890Z,11.05
2023-03-07T07:18:46.356Z,10.18
2023-03-07T07:21:13.138Z,11.10
2023-03-07T07:23:40.068Z,11.40
2023-03-07T07:26:06.986Z,11.05
2023-03-07T07:28:33.720Z,11.50
2023-03-07T07:31:00.621Z,11.60
2023-03-07T07:33:27.709Z,10.10
2023-03-07T07:35:54.578Z,10.90
2023-03-07T07:38:21.654Z,10.52
2023-03-07T07:40:48.733Z,12.07
2023-03-07T07:43:17.532Z,11.40
2023-03-07T07:45:44.337Z,9.52
2023-03-07T07:48:11.312Z,10.07
2023-03-07T07:50:38.491Z,10.65
2023-03-07T07:53:05.277Z,9.43
2023-03-07T07:55:32.457Z,10.88
2023-03-07T07:57:59.291Z,9.35
2023-03-07T08:00:26.374Z,10.07
2023-03-07T08:02:53.128Z,10.27
2023-03-07T08:05:21.715Z,10.05
2023-03-07T08:07:49.609Z,10.93
2023-03-07T08:10:17.703Z,10.32
2023-03-07T08:12:48.289Z,13.18
2023-03-07T08:15:17.064Z,12.35
2023-03-07T08:17:44.353Z,11.48
2023-03-07T08:20:11.634Z,10.40
2023-03-07T08:22:39.219Z,10.32
2023-03-07T08:25:18.029Z,9.88
2023-03-07T08:27:44.960Z,9.70
2023-03-07T08:30:13.240Z,9.80
2023-03-07T08:32:40.047Z,9.82
2023-03-07T08:35:07.640Z,10.27
2023-03-07T08:37:35.320Z,9.60
2023-03-07T08:40:02.762Z,9.02
2023-03-07T08:42:30.142Z,9.38
2023-03-07T08:44:57.004Z,9.55
2023-03-07T08:47:24.334Z,9.55
2023-03-07T08:49:51.142Z,9.43
2023-03-07T08:52:17.964Z,8.77
2023-03-07T08:54:45.325Z,8.73
2023-03-07T08:57:12.132Z,9.23
2023-03-07T08:59:38.884Z,9.73
2023-03-07T09:02:05.747Z,9.55
2023-03-07T09:04:32.541Z,8.88
2023-03-07T09:07:01.532Z,8.60
2023-03-07T09:09:30.363Z,9.38
2023-03-07T09:11:57.891Z,9.40
2023-03-07T09:14:24.794Z,8.38
2023-03-07T09:16:51.604Z,9.02
2023-03-07T09:19:18.323Z,9.38
2023-03-07T09:21:45.037Z,9.02
2023-03-07T09:24:11.812Z,7.43
2023-03-07T09:26:38.608Z,8.00
2023-03-07T09:29:05.375Z,7.97
2023-03-07T09:31:32.199Z,8.07
2023-03-07T09:33:59.400Z,7.68
2023-03-07T09:36:26.331Z,7.78
2023-03-07T09:38:53.079Z,7.20
2023-03-07T09:41:46.967Z,7.53
2023-03-07T09:44:41.617Z,7.07
2023-03-07T09:50:02.230Z,6.55
2023-03-07T09:52:34.626Z,6.57
2023-03-07T09:55:13.245Z,7.15
2023-03-07T09:57:55.337Z,5.90
2023-03-07T10:00:30.746Z,6.72
2023-03-07T10:03:22.091Z,6.97
2023-03-07T10:05:55.447Z,6.45
2023-03-07T10:08:31.736Z,6.18
2023-03-07T10:11:40.446Z,6.68
2023-03-07T10:15:00.801Z,5.60
2023-03-07T10:17:43.873Z,5.60
2023-03-07T10:20:22.982Z,6.05
2023-03-07T10:23:22.118Z,5.88
2023-03-07T10:26:10.708Z,4.88
2023-03-07T10:28:42.859Z,5.53
2023-03-07T10:31:32.068Z,5.00
2023-03-07T10:33:59.397Z,4.43
2023-03-07T10:36:46.941Z,5.15
2023-03-07T10:39:36.120Z,4.45
2023-03-07T10:42:02.870Z,4.00
2023-03-07T10:44:34.211Z,4.22
2023-03-07T10:47:01.198Z,4.15
2023-03-07T10:49:50.388Z,4.18
2023-03-07T10:52:43.926Z,3.75
2023-03-07T10:55:36.943Z,3.35
2023-03-07T10:58:28.866Z,2.70
2023-03-07T11:01:06.844Z,2.42
2023-03-07T11:03:52.727Z,2.33
2023-03-07T11:06:41.819Z,2.33
2023-03-07T11:09:19.353Z,2.40
2023-03-07T11:12:04.722Z,3.10
2023-03-07T11:15:00.015Z,2.55
2023-03-07T11:17:48.542Z,2.40
2023-03-07T11:20:29.195Z,3.08
2023-03-07T11:23:26.063Z,2.80
2023-03-07T11:25:55.848Z,2.85
2023-03-07T11:28:33.497Z,2.38
2023-03-07T11:31:39.864Z,2.75
2023-03-07T11:34:34.706Z,2.13
2023-03-07T11:37:34.302Z,2.08
2023-03-07T11:40:22.969Z,2.05
2023-03-07T11:43:21.663Z,1.90
2023-03-07T11:46:09.566Z,2.05
2023-03-07T11:49:11.090Z,2.30
2023-03-07T11:52:14.291Z,2.10
2023-03-07T11:55:16.238Z,1.60
2023-03-07T11:58:15.800Z,1.73
2023-03-07T12:01:09.845Z,2.20
2023-03-07T12:04:28.357Z,1.77
2023-03-07T12:07:04.699Z,1.40
2023-03-07T12:10:03.489Z,1.80
2023-03-07T12:13:15.946Z,1.80
2023-03-07T12:16:00.817Z,1.05
2023-03-07T12:18:58.414Z,2.00
2023-03-07T12:22:03.249Z,1.80
2023-03-07T12:27:19.691Z,1.40
2023-03-07T12:30:01.842Z,1.20
2023-03-07T12:32:33.450Z,0.98
2023-03-07T12:35:26.677Z,1.08
2023-03-07T12:38:12.861Z,1.30
2023-03-07T12:40:47.356Z,1.30
2023-03-07T12:43:27.292Z,1.20
2023-03-07T12:46:12.162Z,1.25
2023-03-07T12:48:58.919Z,0.98
2023-03-07T12:51:35.327Z,1.58
2023-03-07T12:54:26.530Z,1.10
2023-03-07T12:57:07.817Z,1.08
2023-03-07T12:59:40.080Z,1.10
2023-03-07T13:02:27.257Z,1.05
2023-03-07T13:04:54.679Z,0.95
2023-03-07T13:07:29.408Z,1.23
2023-03-07T13:10:05.938Z,1.33
2023-03-07T13:12:38.062Z,1.30
2023-03-07T13:15:21.132Z,1.25
2023-03-07T13:17:48.136Z,1.20
2023-03-07T13:20:43.368Z,1.35
2023-03-07T13:23:28.157Z,1.70
2023-03-07T13:26:07.657Z,1.13
2023-03-07T13:28:39.302Z,1.13
2023-03-07T13:31:20.991Z,1.60
2023-03-07T13:33:50.640Z,1.52
2023-03-07T13:36:37.833Z,1.33
2023-03-07T13:39:38.473Z,1.20
2023-03-07T13:42:43.602Z,0.95
2023-03-07T13:45:39.217Z,1.50
2023-03-07T13:48:15.537Z,1.10
2023-03-07T13:50:42.174Z,1.10
2023-03-07T13:53:18.692Z,1.20
2023-03-07T13:56:01.203Z,1.20
2023-03-07T13:58:33.641Z,1.13
2023-03-07T14:01:04.056Z,1.00
2023-03-07T14:03:38.796Z,0.90
2023-03-07T14:06:17.410Z,0.90
2023-03-07T14:08:47.361Z,1.15
2023-03-07T14:11:40.951Z,1.20
2023-03-07T14:14:47.398Z,1.00
2023-03-07T14:17:47.109Z,0.93
2023-03-07T14:20:24.036Z,0.95
2023-03-07T14:23:48.371Z,1.33
2023-03-07T14:26:41.927Z,1.35
2023-03-07T14:29:23.693Z,1.40
2023-03-07T14:31:59.431Z,1.30
2023-03-07T14:34:32.389Z,1.65
2023-03-07T14:37:28.066Z,1.80
2023-03-07T14:40:04.106Z,1.98
2023-03-07T14:43:16.054Z,1.60
2023-03-07T14:46:11.083Z,1.70
2023-03-07T14:49:00.430Z,1.60
2023-03-07T14:51:30.420Z,1.90
2023-03-07T14:54:17.681Z,1.25
2023-03-07T14:56:45.074Z,1.40
2023-03-07T14:59:25.944Z,1.40
2023-03-07T15:01:55.397Z,1.40
2023-03-07T15:04:33.148Z,1.45
2023-03-07T15:07:04.675Z,1.23
2023-03-07T15:09:33.714Z,1.83
2023-03-07T15:12:18.598Z,1.25
2023-03-07T15:15:04.156Z,1.40
2023-03-07T15:17:43.789Z,1.58
2023-03-07T15:20:22.357Z,1.05
2023-03-07T15:22:49.404Z,1.25
2023-03-07T15:25:24.474Z,1.20
2023-03-07T15:28:17.600Z,1.20
2023-03-07T15:30:53.222Z,0.98
2023-03-07T15:33:20.360Z,1.27
2023-03-07T15:36:12.195Z,0.95
2023-03-07T15:38:50.302Z,1.10
2023-03-07T15:41:31.713Z,1.45
2023-03-07T15:44:18.232Z,1.50
2023-03-07T15:46:53.011Z,1.40
2023-03-07T15:49:41.330Z,1.20
2023-03-07T15:52:28.292Z,1.45
2023-03-07T15:54:58.314Z,1.20
2023-03-07T15:57:38.322Z,1.52
2023-03-07T16:00:19.041Z,1.20
2023-03-07T16:02:50.598Z,1.17
2023-03-07T16:05:23.177Z,1.30
2023-03-07T16:07:56.778Z,1.70
2023-03-07T16:10:31.632Z,1.25
2023-03-07T16:13:00.823Z,1.58
2023-03-07T16:15:27.846Z,1.63
2023-03-07T16:17:56.512Z,1.60
2023-03-07T16:20:27.889Z,1.40
2023-03-07T16:22:55.738Z,1.50
2023-03-07T16:25:25.202Z,1.23
2023-03-07T16:27:56.595Z,1.73
2023-03-07T16:30:27.720Z,1.92
2023-03-07T16:32:55.650Z,1.70
2023-03-07T16:35:28.424Z,1.92
2023-03-07T16:37:56.067Z,1.48
2023-03-07T16:40:23.633Z,1.38
2023-03-07T16:42:50.758Z,1.58
2023-03-07T16:45:22.394Z,1.58
2023-03-07T16:47:52.984Z,1.13
2023-03-07T16:50:25.503Z,1.70
2023-03-07T16:52:52.570Z,1.58
2023-03-07T16:55:20.090Z,1.58
2023-03-07T16:57:51.232Z,1.77
2023-03-07T17:00:28.455Z,1.70
2023-03-07T17:03:00.390Z,1.50
2023-03-07T17:05:29.991Z,1.63
2023-03-07T17:07:58.852Z,1.42
2023-03-07T17:10:27.156Z,1.42
2023-03-07T17:12:57.462Z,1.27
2023-03-07T17:15:30.396Z,1.40
2023-03-07T17:17:59.348Z,1.37
2023-03-07T17:20:27.101Z,1.67
2023-03-07T17:22:53.910Z,1.40
2023-03-07T17:25:22.557Z,1.33
2023-03-07T17:28:00.003Z,2.47
2023-03-07T17:30:30.002Z,1.70
2023-03-07T17:32:57.168Z,1.88
2023-03-07T17:35:25.076Z,1.70
2023-03-07T17:37:53.045Z,1.67
2023-03-07T17:40:21.581Z,1.70
2023-03-07T17:42:52.002Z,1.80
2023-03-07T17:45:19.274Z,1.75
2023-03-07T17:47:51.465Z,1.83
2023-03-07T17:50:23.551Z,1.50
2023-03-07T17:52:55.365Z,1.80
2023-03-07T17:55:26.434Z,1.75
2023-03-07T17:57:53.481Z,2.00
2023-03-07T18:00:21.236Z,1.80
2023-03-07T18:02:48.277Z,1.98
2023-03-07T18:05:15.120Z,2.20
2023-03-07T18:07:41.996Z,1.73
2023-03-07T18:10:10.292Z,2.03
2023-03-07T18:12:39.174Z,1.70
2023-03-07T18:15:16.000Z,1.65
2023-03-07T18:17:48.316Z,2.00
2023-03-07T18:20:18.878Z,2.10
2023-03-07T18:22:45.901Z,1.77
2023-03-07T18:25:15.897Z,1.70
2023-03-07T18:27:43.348Z,2.00
2023-03-07T18:30:11.875Z,2.05
2023-03-07T18:32:38.771Z,1.90
2023-03-07T18:35:06.745Z,1.77
2023-03-07T18:37:33.784Z,1.98
2023-03-07T18:40:00.614Z,1.98
2023-03-07T18:42:27.462Z,1.95
2023-03-07T18:44:54.528Z,2.03
2023-03-07T18:47:21.484Z,2.10
2023-03-07T18:49:52.144Z,2.22
2023-03-07T18:52:18.976Z,2.75
2023-03-07T18:54:48.018Z,2.47
2023-03-07T18:57:15.294Z,2.25
2023-03-07T18:59:42.045Z,2.38
2023-03-07T19:02:10.278Z,2.17
2023-03-07T19:04:37.086Z,1.90
2023-03-07T19:07:04.035Z,1.70
2023-03-07T19:09:31.600Z,1.67
2023-03-07T19:11:58.432Z,1.50
2023-03-07T19:14:26.369Z,1.40
2023-03-07T19:16:53.206Z,1.90
2023-03-07T19:19:20.723Z,1.90
2023-03-07T19:21:47.567Z,2.15
2023-03-07T19:24:14.488Z,1.90
2023-03-07T19:26:42.720Z,1.83
2023-03-07T19:29:12.065Z,2.13
2023-03-07T19:31:39.188Z,2.38
2023-03-07T19:34:06.414Z,2.35
2023-03-07T19:36:35.150Z,2.03
2023-03-07T19:39:02.264Z,1.70
2023-03-07T19:41:31.753Z,2.30
2023-03-07T19:44:00.516Z,2.33
2023-03-07T19:46:28.168Z,2.35
2023-03-07T19:48:55.234Z,2.20
2023-03-07T19:51:25.264Z,2.40
2023-03-07T19:53:56.789Z,2.17
2023-03-07T19:56:28.630Z,2.17
2023-03-07T19:58:57.447Z,2.30
2023-03-07T20:01:25.734Z,2.25
2023-03-07T20:03:53.749Z,2.58
2023-03-07T20:06:27.760Z,2.03
2023-03-07T20:11:27.465Z,2.08
2023-03-07T20:13:56.316Z,2.38
2023-03-07T20:16:24.563Z,2.58
2023-03-07T20:18:53.195Z,2.38
2023-03-07T20:21:23.072Z,2.40
2023-03-07T20:23:52.826Z,2.75
2023-03-07T20:26:34.464Z,2.95
2023-03-07T20:29:03.849Z,2.67
2023-03-07T20:31:31.041Z,2.72
2023-03-07T20:34:00.102Z,2.75
2023-03-07T20:36:33.741Z,2.75
2023-03-07T20:39:05.425Z,3.05
2023-03-07T20:41:33.662Z,2.92
2023-03-07T20:44:03.756Z,4.07
2023-03-07T20:46:32.221Z,3.30
2023-03-07T20:49:01.121Z,3.13
2023-03-07T20:51:32.043Z,3.10
2023-03-07T20:54:05.238Z,2.80
2023-03-07T20:56:34.670Z,2.78
2023-03-07T20:59:02.142Z,3.03
2023-03-07T21:01:32.311Z,3.30
2023-03-07T21:04:10.966Z,3.22
2023-03-07T21:06:41.902Z,3.63
2023-03-07T21:09:10.863Z,3.75
2023-03-07T21:11:41.974Z,3.63
2023-03-07T21:14:08.810Z,3.30
2023-03-07T21:16:35.697Z,3.40
2023-03-07T21:19:06.085Z,3.25
2023-03-07T21:21:34.811Z,3.20
2023-03-07T21:24:01.689Z,3.30
2023-03-07T21:26:31.697Z,3.45
2023-03-07T21:28:59.525Z,2.88
2023-03-07T21:31:34.145Z,3.58
2023-03-07T21:34:06.229Z,2.97
2023-03-07T21:36:34.068Z,3.47
2023-03-07T21:39:03.666Z,3.30
2023-03-07T21:41:30.384Z,3.13
2023-03-07T21:43:58.167Z,3.28
2023-03-07T21:46:26.196Z,3.10
2023-03-07T21:48:53.429Z,3.40
2023-03-07T21:51:21.172Z,3.45
2023-03-07T21:53:48.043Z,3.45
2023-03-07T21:56:17.225Z,3.20
2023-03-07T21:58:48.827Z,3.25
2023-03-07T22:01:23.228Z,3.35
2023-03-07T22:03:56.265Z,2.80
2023-03-07T22:06:24.739Z,2.90
2023-03-07T22:08:51.472Z,2.75
2023-03-07T22:11:18.253Z,3.45
2023-03-07T22:13:45.022Z,2.90
2023-03-07T22:16:15.916Z,2.35
2023-03-07T22:18:43.002Z,2.50
2023-03-07T22:21:14.597Z,2.40
2023-03-07T22:23:42.207Z,2.60
2023-03-07T22:26:11.685Z,2.45
2023-03-07T22:28:40.979Z,2.10
2023-03-07T22:31:13.349Z,2.38
2023-03-07T22:33:41.821Z,3.15
2023-03-07T22:36:12.465Z,2.45
2023-03-07T22:38:41.639Z,2.28
2023-03-07T22:41:16.352Z,2.15
2023-03-07T22:43:44.147Z,2.10
2023-03-07T22:46:11.958Z,2.03
2023-03-07T22:48:39.520Z,1.85
2023-03-07T22:51:14.022Z,2.17
2023-03-07T22:53:40.896Z,1.95
2023-03-07T22:56:19.368Z,1.80
2023-03-07T22:58:46.872Z,2.22
2023-03-07T23:01:20.903Z,2.25
2023-03-07T23:06:16.774Z,1.50
2023-03-07T23:08:49.629Z,1.65
2023-03-07T23:11:18.268Z,1.77
2023-03-07T23:13:45.638Z,1.70
2023-03-07T23:16:15.966Z,1.60
2023-03-07T23:18:44.924Z,1.95
2023-03-07T23:21:15.308Z,1.67
2023-03-07T23:23:42.057Z,1.77
2023-03-07T23:26:09.016Z,1.80
2023-03-07T23:28:35.834Z,1.73
2023-03-07T23:31:02.679Z,1.63
2023-03-07T23:33:29.460Z,1.70
2023-03-07T23:36:00.801Z,1.50
2023-03-07T23:38:27.575Z,1.42
2023-03-07T23:40:54.366Z,1.83
2023-03-07T23:43:21.149Z,2.10
2023-03-07T23:45:48.097Z,2.50
2023-03-07T23:48:14.872Z,2.25
2023-03-07T23:50:41.620Z,1.95
2023-03-07T23:53:08.361Z,2.17
2023-03-07T23:55:35.069Z,2.30
2023-03-07T23:58:01.813Z,2.17
